EKRK

Copenhagen Roskilde Airport

Copenhagen, Denmark
TAF EKRK 232021Z 2321/2406 26012KT 9999 SCT030 TEMPO 2322/2401 BKN010
Issued Valid From Valid To
Apr-23 @ 20:21 UTC
(3 hours ago)
Apr-23 @ 21:00 UTC
(2 hours ago)
Apr-24 @ 06:00 UTC
(in 7 hours)
Apr-23 @ 21:00 to Apr-24 @ 06:00
TAF EKRK 232021Z 2321/2406 26012KT 9999 SCT030
Wind Visibility Clouds
260° at 12 knots 10,000+ meters
  • Scattered at 3,000' AGL
Temporary Apr-23 @ 22:00 to Apr-24 @ 01:00
TEMPO 2322/2401 BKN010
Clouds
  • Broken at 1,000' AGL
TAF EKRK 232021Z 2321/2406 26012KT 9999 SCT030 TEMPO 2322/2401 BKN010
Issued Apr-23 @ 20:21 UTC
(3 hours ago)
Valid From Apr-23 @ 21:00 UTC
(2 hours ago)
Valid To Apr-24 @ 06:00 UTC
(in 7 hours)
Apr-23 @ 21:00 - Apr-24 @ 06:00
Wind Visibility
260° at 12 knots 10,000+ meters
Clouds
  • Scattered at 3,000' AGL
Temporary Apr-23 @ 22:00 - Apr-24 @ 01:00
Clouds
  • Broken at 1,000' AGL